createdAt,value
2023-02-01T00:00:01.066Z,87.41
2023-02-01T00:01:01.002Z,87.37
2023-02-01T00:02:01.000Z,87.48
2023-02-01T00:03:00.986Z,87.31
2023-02-01T00:04:01.019Z,87.21
2023-02-01T00:05:00.973Z,87.62
2023-02-01T00:06:00.985Z,87.93
2023-02-01T00:07:00.934Z,87.73
2023-02-01T00:08:00.923Z,87.07
2023-02-01T00:09:00.920Z,87.79
2023-02-01T00:10:00.952Z,87.48
2023-02-01T00:11:00.914Z,87.93
2023-02-01T00:12:00.898Z,87.58
2023-02-01T00:13:00.874Z,87.07
2023-02-01T00:14:00.864Z,87.58
2023-02-01T00:15:00.870Z,88.31
2023-02-01T00:16:01.001Z,89.23
2023-02-01T00:17:00.838Z,89.03
2023-02-01T00:18:00.826Z,89.54
2023-02-01T00:19:00.813Z,89.07
2023-02-01T00:20:00.815Z,89.23
2023-02-01T00:21:00.811Z,89.07
2023-02-01T00:22:00.786Z,89.59
2023-02-01T00:23:00.767Z,88.96
2023-02-01T00:24:00.770Z,89.34
2023-02-01T00:25:00.797Z,89.48
2023-02-01T00:26:00.748Z,90.83
2023-02-01T00:27:00.748Z,91.03
2023-02-01T00:28:00.712Z,90.83
2023-02-01T00:29:00.717Z,91.03
2023-02-01T00:30:00.708Z,91.28
2023-02-01T00:31:00.832Z,91.75
2023-02-01T00:32:00.735Z,92.63
2023-02-01T00:33:00.682Z,92.63
2023-02-01T00:34:00.653Z,93.35
2023-02-01T00:35:00.661Z,93.55
2023-02-01T00:36:00.653Z,94.32
2023-02-01T00:37:00.627Z,95.50
2023-02-01T00:38:00.623Z,95.19
2023-02-01T00:39:00.602Z,96.12
2023-02-01T00:40:00.587Z,95.71
2023-02-01T00:41:00.600Z,95.92
2023-02-01T00:42:00.562Z,95.81
2023-02-01T00:43:00.563Z,95.81
2023-02-01T00:44:00.547Z,95.86
2023-02-01T00:45:00.539Z,96.12
2023-02-01T00:46:00.537Z,95.96
2023-02-01T00:47:00.557Z,95.50
2023-02-01T00:48:00.553Z,95.50
2023-02-01T00:49:00.500Z,95.50
2023-02-01T00:50:00.493Z,95.19
2023-02-01T00:51:00.469Z,95.96
2023-02-01T00:52:00.465Z,96.02
2023-02-01T00:53:00.465Z,94.89
2023-02-01T00:54:00.457Z,94.68
2023-02-01T00:55:00.433Z,94.16
2023-02-01T00:56:00.429Z,95.14
2023-02-01T00:57:00.410Z,94.57
2023-02-01T00:58:00.403Z,94.57
2023-02-01T00:59:00.419Z,94.37
2023-02-01T01:00:00.379Z,93.95
2023-02-01T01:01:00.409Z,94.47
2023-02-01T01:02:00.377Z,94.47
2023-02-01T01:03:00.351Z,93.74
2023-02-01T01:04:00.379Z,93.64
2023-02-01T01:05:00.330Z,93.95
2023-02-01T01:06:00.316Z,93.70
2023-02-01T01:07:00.321Z,92.57
2023-02-01T01:08:00.300Z,92.77
2023-02-01T01:09:00.314Z,91.53
2023-02-01T01:10:00.279Z,91.28
2023-02-01T01:11:00.265Z,91.07
2023-02-01T01:12:00.255Z,91.38
2023-02-01T01:13:00.241Z,91.42
2023-02-01T01:14:00.273Z,91.53
2023-02-01T01:15:00.240Z,91.53
2023-02-01T01:16:00.243Z,91.11
2023-02-01T01:17:00.204Z,91.07
2023-02-01T01:18:00.190Z,91.28
2023-02-01T01:19:00.244Z,90.66
2023-02-01T01:20:00.269Z,89.94
2023-02-01T01:21:00.166Z,89.83
2023-02-01T01:22:00.164Z,89.62
2023-02-01T01:23:00.167Z,88.70
2023-02-01T01:24:00.142Z,89.73
2023-02-01T01:25:00.142Z,89.17
2023-02-01T01:26:00.128Z,88.65
2023-02-01T01:27:00.128Z,89.28
2023-02-01T01:28:00.124Z,88.65
2023-02-01T01:29:00.237Z,88.90
2023-02-01T01:30:00.112Z,89.38
2023-02-01T01:31:00.178Z,88.45
2023-02-01T01:32:00.066Z,89.28
2023-02-01T01:33:00.065Z,88.65
2023-02-01T01:34:00.042Z,88.14
2023-02-01T01:35:00.021Z,88.90
2023-02-01T01:36:00.087Z,88.70
2023-02-01T01:37:00.011Z,89.32
2023-02-01T01:37:59.986Z,89.22
2023-02-01T01:39:00.007Z,89.62
2023-02-01T01:39:59.984Z,89.52
2023-02-01T01:40:59.957Z,89.83
2023-02-01T01:41:59.959Z,89.83
2023-02-01T01:42:59.946Z,89.83
2023-02-01T01:43:59.919Z,89.52
2023-02-01T01:44:59.915Z,89.11
2023-02-01T01:45:59.919Z,88.90
2023-02-01T01:46:59.925Z,88.24
2023-02-01T01:47:59.885Z,88.70
2023-02-01T01:48:59.880Z,88.70
2023-02-01T01:49:59.860Z,89.73
2023-02-01T01:50:59.852Z,89.32
2023-02-01T01:51:59.867Z,89.94
2023-02-01T01:52:59.832Z,89.67
2023-02-01T01:53:59.824Z,89.77
2023-02-01T01:54:59.823Z,89.62
2023-02-01T01:55:59.808Z,89.52
2023-02-01T01:56:59.795Z,89.52
2023-02-01T01:57:59.793Z,89.73
2023-02-01T01:58:59.767Z,89.73
2023-02-01T01:59:59.755Z,89.94
2023-02-01T02:00:59.783Z,89.62
2023-02-01T02:01:59.798Z,89.42
2023-02-01T02:02:59.719Z,89.52
2023-02-01T02:03:59.756Z,89.83
2023-02-01T02:04:59.699Z,89.94
2023-02-01T02:05:59.697Z,89.62
2023-02-01T02:06:59.682Z,89.32
2023-02-01T02:07:59.751Z,89.83
2023-02-01T02:08:59.671Z,89.87
2023-02-01T02:10:01.394Z,89.52
2023-02-01T02:10:59.683Z,89.01
2023-02-01T02:11:59.625Z,89.42
2023-02-01T02:12:59.625Z,89.42
2023-02-01T02:13:59.624Z,89.62
2023-02-01T02:14:59.646Z,89.62
2023-02-01T02:15:59.686Z,89.73
2023-02-01T02:16:59.578Z,89.73
2023-02-01T02:17:59.563Z,89.32
2023-02-01T02:18:59.551Z,89.42
2023-02-01T02:19:59.554Z,89.73
2023-02-01T02:20:59.561Z,89.42
2023-02-01T02:21:59.532Z,89.42
2023-02-01T02:22:59.525Z,89.11
2023-02-01T02:23:59.517Z,89.52
2023-02-01T02:24:59.506Z,89.42
2023-02-01T02:25:59.497Z,89.73
2023-02-01T02:26:59.480Z,89.94
2023-02-01T02:27:59.481Z,89.22
2023-02-01T02:28:59.447Z,88.96
2023-02-01T02:29:59.443Z,89.42
2023-02-01T02:30:59.462Z,89.62
2023-02-01T02:31:59.430Z,89.83
2023-02-01T02:32:59.431Z,89.73
2023-02-01T02:33:59.404Z,89.94
2023-02-01T02:34:59.393Z,89.94
2023-02-01T02:35:59.381Z,90.04
2023-02-01T02:36:59.370Z,89.42
2023-02-01T02:37:59.351Z,89.48
2023-02-01T02:38:59.358Z,89.59
2023-02-01T02:39:59.360Z,89.38
2023-02-01T02:40:59.331Z,89.48
2023-02-01T02:41:59.334Z,89.94
2023-02-01T02:42:59.301Z,89.48
2023-02-01T02:43:59.316Z,89.28
2023-02-01T02:44:59.276Z,88.86
2023-02-01T02:45:59.334Z,88.96
2023-02-01T02:46:59.266Z,88.86
2023-02-01T02:47:59.261Z,89.38
2023-02-01T02:48:59.250Z,89.59
2023-02-01T02:49:59.227Z,89.07
2023-02-01T02:50:59.215Z,89.69
2023-02-01T02:51:59.211Z,89.83
2023-02-01T02:52:59.204Z,89.22
2023-02-01T02:53:59.193Z,89.38
2023-02-01T02:54:59.206Z,89.38
2023-02-01T02:55:59.199Z,89.62
2023-02-01T02:56:59.155Z,89.42
2023-02-01T02:57:59.141Z,89.62
2023-02-01T02:58:59.133Z,89.42
2023-02-01T02:59:59.154Z,89.94
2023-02-01T03:00:59.155Z,89.73
2023-02-01T03:01:59.090Z,89.52
2023-02-01T03:02:59.130Z,89.73
2023-02-01T03:03:59.084Z,89.69
2023-02-01T03:04:59.114Z,89.48
2023-02-01T03:05:59.066Z,89.42
2023-02-01T03:06:59.047Z,88.55
2023-02-01T03:07:59.043Z,89.48
2023-02-01T03:08:59.017Z,88.24
2023-02-01T03:09:59.022Z,88.34
2023-02-01T03:10:59.012Z,87.83
2023-02-01T03:11:59.024Z,88.14
2023-02-01T03:12:58.988Z,88.82
2023-02-01T03:13:58.975Z,88.45
2023-02-01T03:14:58.954Z,89.07
2023-02-01T03:15:58.943Z,88.65
2023-02-01T03:16:58.955Z,88.45
2023-02-01T03:17:58.928Z,89.28
2023-02-01T03:18:58.939Z,89.17
2023-02-01T03:19:58.909Z,89.28
2023-02-01T03:20:58.917Z,88.76
2023-02-01T03:21:59.843Z,88.45
2023-02-01T03:22:58.881Z,88.24
2023-02-01T03:23:58.887Z,88.04
2023-02-01T03:24:58.856Z,88.24
2023-02-01T03:25:58.837Z,88.24
2023-02-01T03:26:58.830Z,88.55
2023-02-01T03:27:58.853Z,88.65
2023-02-01T03:28:58.825Z,89.38
2023-02-01T03:29:58.811Z,89.62
2023-02-01T03:30:58.866Z,89.73
2023-02-01T03:31:58.836Z,89.11
2023-02-01T03:33:06.309Z,89.42
2023-02-01T03:33:58.757Z,89.52
2023-02-01T03:34:58.749Z,89.42
2023-02-01T03:35:58.739Z,89.73
2023-02-01T03:36:58.721Z,89.32
2023-02-01T03:37:58.711Z,89.42
2023-02-01T03:38:58.732Z,88.76
2023-02-01T03:39:58.690Z,89.17
2023-02-01T03:40:58.684Z,89.73
2023-02-01T03:41:58.697Z,89.48
2023-02-01T03:42:58.671Z,89.07
2023-02-01T03:43:58.704Z,88.65
2023-02-01T03:44:58.633Z,88.86
2023-02-01T03:45:58.654Z,88.86
2023-02-01T03:46:58.624Z,88.55
2023-02-01T03:47:58.616Z,88.96
2023-02-01T03:48:58.593Z,89.48
2023-02-01T03:49:58.616Z,89.38
2023-02-01T03:50:58.572Z,89.52
2023-02-01T03:51:58.708Z,89.48
2023-02-01T03:52:58.552Z,88.65
2023-02-01T03:53:58.587Z,88.55
2023-02-01T03:54:58.541Z,88.20
2023-02-01T03:55:58.535Z,89.13
2023-02-01T03:56:58.516Z,88.82
2023-02-01T03:57:58.497Z,88.41
2023-02-01T03:58:58.495Z,88.86
2023-02-01T03:59:58.505Z,88.61
2023-02-01T04:00:58.617Z,88.96
2023-02-01T04:01:58.463Z,88.92
2023-02-01T04:02:58.450Z,89.23
2023-02-01T04:03:58.439Z,88.61
2023-02-01T04:04:58.431Z,89.23
2023-02-01T04:05:58.452Z,88.51
2023-02-01T04:06:58.415Z,89.13
2023-02-01T04:07:58.408Z,89.69
2023-02-01T04:08:58.394Z,89.34
2023-02-01T04:09:58.377Z,89.34
2023-02-01T04:10:58.360Z,88.92
2023-02-01T04:11:58.371Z,88.92
2023-02-01T04:12:58.350Z,89.03
2023-02-01T04:13:58.330Z,88.82
2023-02-01T04:14:58.330Z,89.34
2023-02-01T04:15:58.329Z,89.23
2023-02-01T04:16:58.301Z,89.23
2023-02-01T04:17:58.303Z,89.34
2023-02-01T04:18:58.277Z,89.23
2023-02-01T04:19:58.275Z,88.61
2023-02-01T04:20:58.277Z,89.44
2023-02-01T04:21:58.240Z,88.61
2023-02-01T04:22:58.228Z,88.61
2023-02-01T04:23:58.237Z,88.61
2023-02-01T04:24:58.217Z,88.92
2023-02-01T04:25:58.212Z,88.82
2023-02-01T04:26:58.209Z,89.23
2023-02-01T04:27:58.202Z,89.13
2023-02-01T04:28:58.193Z,89.13
2023-02-01T04:29:58.565Z,89.44
2023-02-01T04:30:58.315Z,89.44
2023-02-01T04:31:58.155Z,88.92
2023-02-01T04:32:58.139Z,88.78
2023-02-01T04:33:58.119Z,87.85
2023-02-01T04:34:58.120Z,88.61
2023-02-01T04:35:58.092Z,89.34
2023-02-01T04:36:58.089Z,87.85
2023-02-01T04:37:58.092Z,88.06
2023-02-01T04:38:58.070Z,88.16
2023-02-01T04:39:58.052Z,88.37
2023-02-01T04:40:58.037Z,88.06
2023-02-01T04:41:58.046Z,88.06
2023-02-01T04:42:58.031Z,87.95
2023-02-01T04:43:58.023Z,88.61
2023-02-01T04:44:58.007Z,88.82
2023-02-01T04:45:58.060Z,89.34
2023-02-01T04:46:57.978Z,89.54
2023-02-01T04:47:57.985Z,89.34
2023-02-01T04:48:57.962Z,88.51
2023-02-01T04:49:57.940Z,89.40
2023-02-01T04:50:57.941Z,88.61
2023-02-01T04:51:57.921Z,87.89
2023-02-01T04:52:57.923Z,88.61
2023-02-01T04:53:57.902Z,88.68
2023-02-01T04:54:59.275Z,88.61
2023-02-01T04:55:57.880Z,88.92
2023-02-01T04:56:57.877Z,88.16
2023-02-01T04:57:57.858Z,88.57
2023-02-01T04:58:57.854Z,88.37
2023-02-01T04:59:57.831Z,88.16
2023-02-01T05:00:57.843Z,88.37
2023-02-01T05:01:57.820Z,88.26
2023-02-01T05:02:57.805Z,88.37
2023-02-01T05:03:57.832Z,88.47
2023-02-01T05:04:57.867Z,88.78
2023-02-01T05:05:57.774Z,88.41
2023-02-01T05:06:57.765Z,88.61
2023-02-01T05:07:57.761Z,88.10
2023-02-01T05:08:57.731Z,89.23
2023-02-01T05:09:57.740Z,88.82
2023-02-01T05:11:05.252Z,88.98
2023-02-01T05:11:57.699Z,89.23
2023-02-01T05:12:57.687Z,88.68
2023-02-01T05:13:57.673Z,88.37
2023-02-01T05:14:57.668Z,88.47
2023-02-01T05:15:57.806Z,87.95
2023-02-01T05:16:57.651Z,87.95
2023-02-01T05:17:57.644Z,87.95
2023-02-01T05:18:57.628Z,89.23
2023-02-01T05:19:57.641Z,88.68
2023-02-01T05:20:57.624Z,87.95
2023-02-01T05:21:57.607Z,87.95
2023-02-01T05:22:57.622Z,88.06
2023-02-01T05:23:57.585Z,87.54
2023-02-01T05:24:57.567Z,88.37
2023-02-01T05:25:57.558Z,88.37
2023-02-01T05:26:57.553Z,88.06
2023-02-01T05:27:57.528Z,88.57
2023-02-01T05:28:57.516Z,89.19
2023-02-01T05:29:57.518Z,88.92
2023-02-01T05:30:57.566Z,88.82
2023-02-01T05:32:00.967Z,88.92
2023-02-01T05:32:58.472Z,88.26
2023-02-01T05:33:57.471Z,88.37
2023-02-01T05:34:57.456Z,88.82
2023-02-01T05:35:57.466Z,88.92
2023-02-01T05:36:57.435Z,89.44
2023-02-01T05:37:57.444Z,89.34
2023-02-01T05:38:57.423Z,89.75
2023-02-01T05:39:57.414Z,89.34
2023-02-01T05:40:57.403Z,89.65
2023-02-01T05:41:57.390Z,89.13
2023-02-01T05:42:57.396Z,89.44
2023-02-01T05:43:57.360Z,89.44
2023-02-01T05:44:57.359Z,89.44
2023-02-01T05:45:57.432Z,89.19
2023-02-01T05:46:57.346Z,88.51
2023-02-01T05:47:57.316Z,88.57
2023-02-01T05:48:57.317Z,88.82
2023-02-01T05:49:57.285Z,89.44
2023-02-01T05:50:57.302Z,88.82
2023-02-01T05:51:59.381Z,88.78
2023-02-01T05:52:57.269Z,88.71
2023-02-01T05:53:57.255Z,88.71
2023-02-01T05:54:57.242Z,88.51
2023-02-01T05:55:57.226Z,88.71
2023-02-01T05:56:57.242Z,89.23
2023-02-01T05:57:57.209Z,89.34
2023-02-01T05:58:57.208Z,88.92
2023-02-01T05:59:57.819Z,89.65
2023-02-01T06:00:57.176Z,88.68
2023-02-01T06:01:57.162Z,88.31
2023-02-01T06:02:57.251Z,87.34
2023-02-01T06:03:57.221Z,88.06
2023-02-01T06:04:57.127Z,89.03
2023-02-01T06:05:57.124Z,88.41
2023-02-01T06:06:57.121Z,87.89
2023-02-01T06:07:57.114Z,88.20
2023-02-01T06:08:57.092Z,87.74
2023-02-01T06:09:57.079Z,87.58
2023-02-01T06:10:57.070Z,87.65
2023-02-01T06:11:57.061Z,87.99
2023-02-01T06:12:57.036Z,88.20
2023-02-01T06:13:57.062Z,88.71
2023-02-01T06:14:57.029Z,89.23
2023-02-01T06:15:57.054Z,88.92
2023-02-01T06:16:57.004Z,89.44
2023-02-01T06:17:56.989Z,88.51
2023-02-01T06:18:56.989Z,88.82
2023-02-01T06:19:56.971Z,88.61
2023-02-01T06:20:56.960Z,89.03
2023-02-01T06:21:56.956Z,89.34
2023-02-01T06:22:56.939Z,89.23
2023-02-01T06:23:56.956Z,89.34
2023-02-01T06:24:56.925Z,89.34
2023-02-01T06:25:56.926Z,89.65
2023-02-01T06:26:56.891Z,89.54
2023-02-01T06:27:56.875Z,88.92
2023-02-01T06:28:56.872Z,89.44
2023-02-01T06:29:56.860Z,89.23
2023-02-01T06:30:56.965Z,88.51
2023-02-01T06:31:57.009Z,88.92
2023-02-01T06:32:56.829Z,89.34
2023-02-01T06:33:56.824Z,89.23
2023-02-01T06:34:56.804Z,89.44
2023-02-01T06:35:56.790Z,89.34
2023-02-01T06:36:56.778Z,89.44
2023-02-01T06:37:56.783Z,88.82
2023-02-01T06:38:56.768Z,88.92
2023-02-01T06:39:56.773Z,88.82
2023-02-01T06:40:56.747Z,89.54
2023-02-01T06:41:56.739Z,89.17
2023-02-01T06:42:56.724Z,89.38
2023-02-01T06:43:56.717Z,89.54
2023-02-01T06:44:56.711Z,89.34
2023-02-01T06:45:56.683Z,88.92
2023-02-01T06:46:56.707Z,88.61
2023-02-01T06:47:56.684Z,89.03
2023-02-01T06:49:04.179Z,89.65
2023-02-01T06:49:56.631Z,88.61
2023-02-01T06:50:56.643Z,87.99
2023-02-01T06:51:56.623Z,87.58
2023-02-01T06:52:56.618Z,88.10
2023-02-01T06:53:56.612Z,87.68
2023-02-01T06:54:56.599Z,87.58
2023-02-01T06:55:56.589Z,88.41
2023-02-01T06:56:56.562Z,87.99
2023-02-01T06:57:56.561Z,88.71
2023-02-01T06:58:56.575Z,89.09
2023-02-01T06:59:56.551Z,88.82
2023-02-01T07:00:56.624Z,89.44
2023-02-01T07:01:56.549Z,89.23
2023-02-01T07:02:56.506Z,89.75
2023-02-01T07:03:56.513Z,89.86
2023-02-01T07:04:56.471Z,89.65
2023-02-01T07:05:56.469Z,89.44
2023-02-01T07:06:56.471Z,89.75
2023-02-01T07:07:56.442Z,90.58
2023-02-01T07:08:56.454Z,90.16
2023-02-01T07:09:56.441Z,91.13
2023-02-01T07:10:56.410Z,90.99
2023-02-01T07:11:56.423Z,91.50
2023-02-01T07:12:56.408Z,90.99
2023-02-01T07:13:56.381Z,91.40
2023-02-01T07:14:56.372Z,91.30
2023-02-01T07:15:56.401Z,91.20
2023-02-01T07:16:56.343Z,91.09
2023-02-01T07:17:56.359Z,90.99
2023-02-01T07:18:56.320Z,90.99
2023-02-01T07:19:56.321Z,91.09
2023-02-01T07:20:56.311Z,91.09
2023-02-01T07:21:56.304Z,91.71
2023-02-01T07:22:56.289Z,92.74
2023-02-01T07:23:56.284Z,92.58
2023-02-01T07:24:56.269Z,92.99
2023-02-01T07:25:56.275Z,94.13
2023-02-01T07:26:56.278Z,94.54
2023-02-01T07:27:56.300Z,94.75
2023-02-01T07:28:56.229Z,95.06
2023-02-01T07:29:56.215Z,95.31
2023-02-01T07:30:56.280Z,95.83
2023-02-01T07:31:56.204Z,95.94
2023-02-01T07:32:56.194Z,96.66
2023-02-01T07:33:56.200Z,96.55
2023-02-01T07:34:56.152Z,96.76
2023-02-01T07:35:56.142Z,96.91
2023-02-01T07:36:56.126Z,96.86
2023-02-01T07:37:56.131Z,96.70
2023-02-01T07:38:56.868Z,97.94
2023-02-01T07:39:56.101Z,98.15
2023-02-01T07:40:56.104Z,98.05
2023-02-01T07:41:56.080Z,98.35
2023-02-01T07:42:56.061Z,98.25
2023-02-01T07:43:56.076Z,98.05
2023-02-01T07:44:56.057Z,98.46
2023-02-01T07:45:56.068Z,99.18
2023-02-01T07:46:56.037Z,99.13
2023-02-01T07:47:56.028Z,98.82
2023-02-01T07:48:55.997Z,98.92
2023-02-01T07:49:56.003Z,98.92
2023-02-01T07:50:55.989Z,99.02
2023-02-01T07:51:55.982Z,99.23
2023-02-01T07:52:55.963Z,99.43
2023-02-01T07:53:56.477Z,99.54
2023-02-01T07:54:55.944Z,99.33
2023-02-01T07:55:55.929Z,99.99
2023-02-01T07:56:55.927Z,99.99
2023-02-01T07:57:55.914Z,99.85
2023-02-01T07:58:55.896Z,99.99
2023-02-01T07:59:55.920Z,99.99
2023-02-01T08:00:55.928Z,99.99
2023-02-01T08:01:55.933Z,99.99
2023-02-01T08:02:55.861Z,99.99
2023-02-01T08:03:55.838Z,99.99
2023-02-01T08:04:55.835Z,99.99
2023-02-01T08:05:55.824Z,99.99
2023-02-01T08:06:55.816Z,99.99
2023-02-01T08:07:55.821Z,99.99
2023-02-01T08:08:55.801Z,99.99
2023-02-01T08:09:55.781Z,99.99
2023-02-01T08:10:55.778Z,99.99
2023-02-01T08:11:55.755Z,99.99
2023-02-01T08:12:55.760Z,99.99
2023-02-01T08:13:55.759Z,99.99
2023-02-01T08:14:55.721Z,99.99
2023-02-01T08:15:55.789Z,99.99
2023-02-01T08:16:55.708Z,99.99
2023-02-01T08:17:55.708Z,99.99
2023-02-01T08:18:55.698Z,99.99
2023-02-01T08:19:55.669Z,99.99
2023-02-01T08:20:55.666Z,99.99
2023-02-01T08:21:55.653Z,99.99
2023-02-01T08:22:55.643Z,99.99
2023-02-01T08:23:55.648Z,99.99
2023-02-01T08:24:55.643Z,99.99
2023-02-01T08:25:55.602Z,99.99
2023-02-01T08:26:55.663Z,99.86
2023-02-01T08:27:55.585Z,99.70
2023-02-01T08:28:55.585Z,99.99
2023-02-01T08:29:55.566Z,99.99
2023-02-01T08:30:55.610Z,99.99
2023-02-01T08:31:55.682Z,99.99
2023-02-01T08:32:55.538Z,99.18
2023-02-01T08:33:55.565Z,99.70
2023-02-01T08:34:55.517Z,99.70
2023-02-01T08:35:55.498Z,99.99
2023-02-01T08:36:55.491Z,99.99
2023-02-01T08:37:55.481Z,99.54
2023-02-01T08:38:55.481Z,99.64
2023-02-01T08:39:55.479Z,99.64
2023-02-01T08:40:55.457Z,99.85
2023-02-01T08:41:55.444Z,99.64
2023-02-01T08:42:55.428Z,99.95
2023-02-01T08:43:55.482Z,99.74
2023-02-01T08:44:55.431Z,99.43
2023-02-01T08:45:56.925Z,99.64
2023-02-01T08:46:55.388Z,99.95
2023-02-01T08:47:55.384Z,99.95
2023-02-01T08:48:55.370Z,99.64
2023-02-01T08:49:55.348Z,99.99
2023-02-01T08:50:55.345Z,99.99
2023-02-01T08:51:58.463Z,99.99
2023-02-01T08:52:56.332Z,99.95
2023-02-01T08:53:55.317Z,99.99
2023-02-01T08:54:55.330Z,99.99
2023-02-01T08:55:55.285Z,99.95
2023-02-01T08:56:55.355Z,99.95
2023-02-01T08:57:55.291Z,99.33
2023-02-01T08:58:55.255Z,99.99
2023-02-01T08:59:55.266Z,99.90
2023-02-01T09:00:55.259Z,99.64
2023-02-01T09:01:55.227Z,99.64
2023-02-01T09:02:55.216Z,99.74
2023-02-01T09:03:55.343Z,99.79
2023-02-01T09:04:55.201Z,99.99
2023-02-01T09:05:55.207Z,99.99
2023-02-01T09:06:55.172Z,99.90
2023-02-01T09:07:55.162Z,99.99
2023-02-01T09:08:55.152Z,99.95
2023-02-01T09:09:55.137Z,99.99
2023-02-01T09:10:55.129Z,99.74
2023-02-01T09:11:55.126Z,99.99
2023-02-01T09:12:55.113Z,99.74
2023-02-01T09:13:55.123Z,99.95
2023-02-01T09:14:55.100Z,99.99
2023-02-01T09:15:55.181Z,99.99
2023-02-01T09:16:55.068Z,99.90
2023-02-01T09:17:55.056Z,99.99
2023-02-01T09:19:14.812Z,99.99
2023-02-01T09:19:56.067Z,99.99
2023-02-01T09:20:55.037Z,99.99
2023-02-01T09:21:55.029Z,99.99
2023-02-01T09:22:55.028Z,99.99
2023-02-01T09:23:55.005Z,99.99
2023-02-01T09:24:55.461Z,99.99
2023-02-01T09:25:54.987Z,99.99
2023-02-01T09:26:54.990Z,99.99
2023-02-01T09:27:54.949Z,99.99
2023-02-01T09:28:54.946Z,99.99
2023-02-01T09:29:54.934Z,99.99
2023-02-01T09:30:55.054Z,99.99
2023-02-01T09:32:03.360Z,99.95
2023-02-01T09:32:55.914Z,99.85
2023-02-01T09:33:54.892Z,99.60
2023-02-01T09:34:54.910Z,99.39
2023-02-01T09:35:54.912Z,98.97
2023-02-01T09:36:54.864Z,99.08
2023-02-01T09:37:54.838Z,99.18
2023-02-01T09:38:54.896Z,99.18
2023-02-01T09:39:54.832Z,99.08
2023-02-01T09:40:54.829Z,99.18
2023-02-01T09:41:54.801Z,99.49
2023-02-01T09:42:54.825Z,99.04
2023-02-01T09:43:54.810Z,99.18
2023-02-01T09:44:54.768Z,99.08
2023-02-01T09:45:54.823Z,99.39
2023-02-01T09:46:54.757Z,98.77
2023-02-01T09:47:54.739Z,98.05
2023-02-01T09:48:54.746Z,97.53
2023-02-01T09:49:54.724Z,98.15
2023-02-01T09:50:54.718Z,98.35
2023-02-01T09:51:54.720Z,98.19
2023-02-01T09:52:54.679Z,99.39
2023-02-01T09:53:54.665Z,99.08
2023-02-01T09:54:54.659Z,98.97
2023-02-01T09:55:54.659Z,99.18
2023-02-01T09:56:54.643Z,99.60
2023-02-01T09:57:54.620Z,98.87
2023-02-01T09:58:54.613Z,99.70
2023-02-01T09:59:54.620Z,98.87
2023-02-01T10:00:54.616Z,98.77
2023-02-01T10:01:54.597Z,98.72
2023-02-01T10:02:54.573Z,99.34
2023-02-01T10:03:54.625Z,99.44
2023-02-01T10:04:54.555Z,98.62
2023-02-01T10:05:54.542Z,98.21
2023-02-01T10:06:54.545Z,97.69
2023-02-01T10:07:54.533Z,98.21
2023-02-01T10:08:54.514Z,97.54
2023-02-01T10:09:54.502Z,97.59
2023-02-01T10:10:54.487Z,97.23
2023-02-01T10:11:54.472Z,97.23
2023-02-01T10:12:54.498Z,97.07
2023-02-01T10:13:54.445Z,97.64
2023-02-01T10:14:54.433Z,97.44
2023-02-01T10:15:54.525Z,97.23
2023-02-01T10:16:54.466Z,97.75
2023-02-01T10:17:54.418Z,97.23
2023-02-01T10:18:54.405Z,96.51
2023-02-01T10:19:54.407Z,96.72
2023-02-01T10:20:54.381Z,96.20
2023-02-01T10:21:54.367Z,96.34
2023-02-01T10:23:16.360Z,96.41
2023-02-01T10:23:57.426Z,96.30
2023-02-01T10:24:54.328Z,96.51
2023-02-01T10:25:54.331Z,96.72
2023-02-01T10:26:54.431Z,97.13
2023-02-01T10:27:54.309Z,97.13
2023-02-01T10:28:54.324Z,96.67
2023-02-01T10:29:54.339Z,96.88
2023-02-01T10:30:54.376Z,96.36
2023-02-01T10:31:54.511Z,95.80
2023-02-01T10:32:54.245Z,96.11
2023-02-01T10:33:54.250Z,95.18
2023-02-01T10:34:54.247Z,95.59
2023-02-01T10:35:54.228Z,95.80
2023-02-01T10:36:54.214Z,95.76
2023-02-01T10:37:54.190Z,95.70
2023-02-01T10:38:54.181Z,95.55
2023-02-01T10:39:54.223Z,95.34
2023-02-01T10:40:54.206Z,95.49
2023-02-01T10:41:54.152Z,95.49
2023-02-01T10:42:54.144Z,94.97
2023-02-01T10:43:54.137Z,95.86
2023-02-01T10:44:54.132Z,95.76
2023-02-01T10:45:54.118Z,95.03
2023-02-01T10:46:54.111Z,94.72
2023-02-01T10:47:54.090Z,94.52
2023-02-01T10:48:54.090Z,94.00
2023-02-01T10:49:54.070Z,94.78
2023-02-01T10:50:54.064Z,94.89
2023-02-01T10:51:54.064Z,94.52
2023-02-01T10:52:54.065Z,94.27
2023-02-01T10:53:54.059Z,94.27
2023-02-01T10:54:54.021Z,93.81
2023-02-01T10:55:54.037Z,93.71
2023-02-01T10:56:54.012Z,93.13
2023-02-01T10:57:54.010Z,93.85
2023-02-01T10:58:53.997Z,94.06
2023-02-01T10:59:53.971Z,93.65
2023-02-01T11:00:53.945Z,93.81
2023-02-01T11:01:59.782Z,93.19
2023-02-01T11:02:54.990Z,93.35
2023-02-01T11:03:53.940Z,92.53
2023-02-01T11:04:53.921Z,92.43
2023-02-01T11:05:53.932Z,92.38
2023-02-01T11:06:53.897Z,91.50
2023-02-01T11:07:53.886Z,91.87
2023-02-01T11:08:53.885Z,92.69
2023-02-01T11:09:53.877Z,91.81
2023-02-01T11:10:53.845Z,90.88
2023-02-01T11:11:53.853Z,92.33
2023-02-01T11:12:53.836Z,92.12
2023-02-01T11:13:53.828Z,91.56
2023-02-01T11:14:53.813Z,91.66
2023-02-01T11:15:55.490Z,91.50
2023-02-01T11:16:53.785Z,90.78
2023-02-01T11:17:53.790Z,91.66
2023-02-01T11:18:53.753Z,91.09
2023-02-01T11:19:53.776Z,90.73
2023-02-01T11:20:53.746Z,91.25
2023-02-01T11:21:53.741Z,91.25
2023-02-01T11:22:53.761Z,91.05
2023-02-01T11:23:53.703Z,90.84
2023-02-01T11:24:53.725Z,91.15
2023-02-01T11:25:53.687Z,91.05
2023-02-01T11:26:53.740Z,90.43
2023-02-01T11:27:55.658Z,90.90
2023-02-01T11:28:53.653Z,88.78
2023-02-01T11:29:53.651Z,88.89
2023-02-01T11:30:53.660Z,89.61
2023-02-01T11:31:53.642Z,90.22
2023-02-01T11:32:53.617Z,90.33
2023-02-01T11:33:53.604Z,89.67
2023-02-01T11:34:53.592Z,89.81
2023-02-01T11:35:53.597Z,90.18
2023-02-01T11:36:53.555Z,90.39
2023-02-01T11:37:53.546Z,89.56
2023-02-01T11:38:53.545Z,90.59
2023-02-01T11:39:53.527Z,90.49
2023-02-01T11:40:53.534Z,90.69
2023-02-01T11:41:53.552Z,89.36
2023-02-01T11:42:53.504Z,89.25
2023-02-01T11:43:53.510Z,89.67
2023-02-01T11:44:53.478Z,90.39
2023-02-01T11:45:53.488Z,89.36
2023-02-01T11:46:53.552Z,88.84
2023-02-01T11:47:53.469Z,89.31
2023-02-01T11:48:53.439Z,89.22
2023-02-01T11:49:53.452Z,88.29
2023-02-01T11:50:53.414Z,88.90
2023-02-01T11:51:53.426Z,88.39
2023-02-01T11:52:53.431Z,88.86
2023-02-01T11:53:53.382Z,87.63
2023-02-01T11:54:53.375Z,87.22
2023-02-01T11:55:53.375Z,88.35
2023-02-01T11:56:53.351Z,87.12
2023-02-01T11:57:53.362Z,87.01
2023-02-01T11:58:53.328Z,87.01
2023-02-01T11:59:56.847Z,86.70
2023-02-01T12:00:53.311Z,86.91
2023-02-01T12:01:53.319Z,87.36
2023-02-01T12:02:53.338Z,87.46
2023-02-01T12:03:53.311Z,87.87
2023-02-01T12:04:53.265Z,88.49
2023-02-01T12:05:53.249Z,89.01
2023-02-01T12:06:53.239Z,89.73
2023-02-01T12:07:53.248Z,89.11
2023-02-01T12:08:53.225Z,88.74
2023-02-01T12:09:53.219Z,89.05
2023-02-01T12:10:53.312Z,88.84
2023-02-01T12:11:53.190Z,89.15
2023-02-01T12:12:53.181Z,87.60
2023-02-01T12:13:53.164Z,88.33
2023-02-01T12:14:53.197Z,89.15
2023-02-01T12:15:53.184Z,87.71
2023-02-01T12:16:53.137Z,88.23
2023-02-01T12:17:53.136Z,88.12
2023-02-01T12:18:53.118Z,87.51
2023-02-01T12:19:53.721Z,87.40
2023-02-01T12:20:53.100Z,87.57
2023-02-01T12:21:53.090Z,87.51
2023-02-01T12:22:53.071Z,86.74
2023-02-01T12:23:53.068Z,87.05
2023-02-01T12:24:53.053Z,86.13
2023-02-01T12:25:53.042Z,87.05
2023-02-01T12:26:53.079Z,86.13
2023-02-01T12:27:53.024Z,85.82
2023-02-01T12:28:53.003Z,86.79
2023-02-01T12:29:53.013Z,86.74
2023-02-01T12:30:53.057Z,86.06
2023-02-01T12:31:53.043Z,86.79
2023-02-01T12:32:52.999Z,86.54
2023-02-01T12:33:52.961Z,86.16
2023-02-01T12:34:52.940Z,86.88
2023-02-01T12:35:52.944Z,86.16
2023-02-01T12:36:52.936Z,86.79
2023-02-01T12:37:52.929Z,86.99
2023-02-01T12:38:52.917Z,85.86
2023-02-01T12:39:52.892Z,86.85
2023-02-01T12:40:52.881Z,86.47
2023-02-01T12:41:52.893Z,86.68
2023-02-01T12:42:52.859Z,86.99
2023-02-01T12:43:52.849Z,87.30
2023-02-01T12:44:52.857Z,86.27
2023-02-01T12:45:52.878Z,86.58
2023-02-01T12:46:52.810Z,87.40
2023-02-01T12:47:52.824Z,87.30
2023-02-01T12:48:52.814Z,88.06
2023-02-01T12:49:52.807Z,87.85
2023-02-01T12:50:52.786Z,87.30
2023-02-01T12:51:52.800Z,87.30